createdAt,value
2023-11-08T00:02:03.965Z,15.43
2023-11-08T00:04:32.275Z,15.38
2023-11-08T00:06:59.262Z,16.42
2023-11-08T00:09:26.439Z,16.83
2023-11-08T00:11:53.209Z,17.13
2023-11-08T00:14:20.553Z,15.38
2023-11-08T00:16:47.363Z,16.38
2023-11-08T00:19:17.546Z,16.27
2023-11-08T00:21:44.584Z,16.33
2023-11-08T00:24:11.813Z,16.10
2023-11-08T00:26:38.629Z,15.88
2023-11-08T00:29:05.775Z,16.10
2023-11-08T00:31:33.409Z,15.77
2023-11-08T00:34:00.509Z,15.32
2023-11-08T00:36:27.356Z,13.68
2023-11-08T00:38:54.947Z,14.73
2023-11-08T00:41:21.735Z,14.45
2023-11-08T00:43:49.059Z,13.48
2023-11-08T00:46:15.878Z,14.25
2023-11-08T00:48:43.206Z,14.30
2023-11-08T00:51:10.549Z,12.85
2023-11-08T00:53:37.724Z,13.68
2023-11-08T00:56:04.866Z,13.13
2023-11-08T00:58:32.031Z,13.23
2023-11-08T01:00:58.832Z,13.30
2023-11-08T01:03:26.066Z,12.98
2023-11-08T01:05:53.031Z,12.30
2023-11-08T01:08:20.148Z,11.80
2023-11-08T01:10:47.890Z,11.85
2023-11-08T01:13:15.055Z,12.32
2023-11-08T01:15:41.874Z,12.60
2023-11-08T01:18:09.599Z,11.18
2023-11-08T01:20:36.675Z,10.77
2023-11-08T01:23:04.186Z,10.50
2023-11-08T01:25:31.081Z,10.75
2023-11-08T01:27:58.155Z,10.13
2023-11-08T01:30:25.021Z,10.57
2023-11-08T01:32:52.343Z,9.50
2023-11-08T01:35:22.106Z,10.23
2023-11-08T01:37:49.346Z,9.05
2023-11-08T01:40:16.197Z,9.57
2023-11-08T01:42:43.924Z,9.32
2023-11-08T01:45:10.887Z,9.32
2023-11-08T01:47:38.253Z,8.95
2023-11-08T01:50:05.754Z,9.73
2023-11-08T01:52:33.038Z,9.70
2023-11-08T01:54:59.817Z,8.45
2023-11-08T01:57:29.880Z,9.45
2023-11-08T01:59:59.075Z,7.75
2023-11-08T02:02:26.276Z,8.88
2023-11-08T02:04:56.070Z,8.05
2023-11-08T02:07:23.366Z,7.75
2023-11-08T02:09:50.614Z,7.35
2023-11-08T02:12:17.908Z,8.20
2023-11-08T02:15:03.939Z,7.35
2023-11-08T02:17:31.219Z,7.05
2023-11-08T02:19:58.000Z,7.13
2023-11-08T02:22:25.149Z,7.18
2023-11-08T02:24:52.197Z,7.05
2023-11-08T02:27:19.383Z,6.88
2023-11-08T02:29:46.175Z,6.50
2023-11-08T02:32:13.609Z,6.88
2023-11-08T02:34:40.546Z,6.13
2023-11-08T02:37:08.892Z,6.20
2023-11-08T02:39:35.657Z,6.72
2023-11-08T02:42:02.781Z,6.35
2023-11-08T02:44:29.553Z,6.28
2023-11-08T02:46:56.616Z,6.53
2023-11-08T02:49:25.481Z,5.53
2023-11-08T02:51:52.843Z,6.40
2023-11-08T02:54:20.210Z,6.20
2023-11-08T02:56:47.587Z,5.80
2023-11-08T02:59:14.387Z,5.90
2023-11-08T03:01:41.516Z,5.72
2023-11-08T03:04:08.556Z,5.47
2023-11-08T03:06:36.011Z,5.35
2023-11-08T03:09:03.793Z,5.35
2023-11-08T03:11:30.921Z,4.47
2023-11-08T03:13:59.280Z,4.95
2023-11-08T03:16:26.343Z,5.07
2023-11-08T03:18:53.563Z,5.63
2023-11-08T03:21:20.704Z,4.65
2023-11-08T03:23:47.545Z,4.75
2023-11-08T03:26:16.675Z,4.60
2023-11-08T03:28:45.122Z,6.00
2023-11-08T03:31:13.503Z,4.55
2023-11-08T03:33:40.400Z,5.03
2023-11-08T03:36:07.511Z,5.30
2023-11-08T03:38:34.296Z,4.22
2023-11-08T03:41:02.307Z,4.60
2023-11-08T03:43:29.122Z,5.13
2023-11-08T03:45:56.238Z,4.03
2023-11-08T03:48:23.120Z,4.47
2023-11-08T03:50:50.208Z,4.50
2023-11-08T03:53:16.943Z,4.50
2023-11-08T03:55:44.104Z,4.40
2023-11-08T03:58:11.020Z,4.47
2023-11-08T04:00:38.174Z,4.65
2023-11-08T04:03:05.031Z,5.13
2023-11-08T04:05:32.220Z,4.80
2023-11-08T04:07:59.101Z,5.43
2023-11-08T04:10:26.204Z,5.15
2023-11-08T04:12:53.078Z,5.90
2023-11-08T04:15:20.425Z,5.05
2023-11-08T04:17:47.221Z,5.13
2023-11-08T04:20:14.450Z,5.25
2023-11-08T04:22:42.729Z,4.72
2023-11-08T04:25:11.714Z,4.80
2023-11-08T04:27:39.075Z,5.22
2023-11-08T04:30:06.767Z,5.03
2023-11-08T04:32:33.613Z,4.65
2023-11-08T04:35:00.715Z,4.78
2023-11-08T04:37:27.535Z,4.85
2023-11-08T04:39:54.621Z,4.35
2023-11-08T04:42:21.418Z,3.58
2023-11-08T04:44:48.885Z,4.10
2023-11-08T04:47:26.238Z,4.25
2023-11-08T04:49:54.837Z,3.90
2023-11-08T04:52:21.903Z,4.03
2023-11-08T04:54:54.605Z,5.03
2023-11-08T04:57:22.119Z,4.18
2023-11-08T04:59:50.136Z,3.10
2023-11-08T05:02:18.135Z,4.18
2023-11-08T05:04:48.757Z,3.05
2023-11-08T05:07:16.606Z,3.63
2023-11-08T05:09:44.506Z,3.45
2023-11-08T05:12:13.188Z,4.07
2023-11-08T05:14:40.391Z,3.90
2023-11-08T05:17:07.237Z,4.22
2023-11-08T05:19:34.455Z,3.92
2023-11-08T05:22:01.310Z,3.75
2023-11-08T05:24:29.268Z,4.35
2023-11-08T05:26:56.165Z,3.60
2023-11-08T05:29:23.436Z,4.15
2023-11-08T05:31:53.727Z,4.00
2023-11-08T05:34:21.678Z,3.60
2023-11-08T05:36:48.769Z,3.83
2023-11-08T05:39:25.928Z,3.90
2023-11-08T05:41:53.598Z,4.05
2023-11-08T05:44:21.131Z,4.10
2023-11-08T05:46:50.090Z,3.85
2023-11-08T05:49:17.690Z,3.50
2023-11-08T05:51:44.484Z,3.60
2023-11-08T05:54:11.593Z,3.75
2023-11-08T05:56:38.404Z,4.18
2023-11-08T05:59:06.443Z,4.20
2023-11-08T06:01:33.206Z,3.70
2023-11-08T06:04:01.154Z,4.25
2023-11-08T06:06:28.825Z,3.58
2023-11-08T06:08:56.100Z,4.60
2023-11-08T06:11:22.999Z,4.22
2023-11-08T06:13:50.103Z,4.13
2023-11-08T06:16:17.304Z,4.13
2023-11-08T06:18:44.689Z,4.32
2023-11-08T06:21:15.237Z,4.25
2023-11-08T06:23:44.935Z,4.80
2023-11-08T06:26:15.690Z,4.50
2023-11-08T06:28:42.851Z,4.85
2023-11-08T06:31:09.792Z,5.45
2023-11-08T06:33:39.439Z,5.57
2023-11-08T06:36:06.713Z,5.32
2023-11-08T06:38:34.004Z,5.65
2023-11-08T06:41:00.809Z,5.20
2023-11-08T06:43:27.943Z,5.20
2023-11-08T06:45:54.728Z,5.90
2023-11-08T06:48:22.062Z,6.45
2023-11-08T06:50:48.930Z,5.55
2023-11-08T06:53:18.947Z,5.72
2023-11-08T06:55:47.533Z,5.68
2023-11-08T06:58:14.878Z,6.63
2023-11-08T07:00:42.211Z,5.53
2023-11-08T07:03:10.678Z,5.78
2023-11-08T07:05:39.255Z,5.78
2023-11-08T07:08:07.987Z,5.28
2023-11-08T07:10:34.864Z,5.40
2023-11-08T07:13:01.951Z,5.55
2023-11-08T07:15:29.222Z,6.28
2023-11-08T07:17:56.838Z,6.47
2023-11-08T07:20:24.293Z,6.07
2023-11-08T07:22:51.427Z,5.85
2023-11-08T07:25:18.853Z,5.75
2023-11-08T07:27:46.077Z,5.75
2023-11-08T07:30:15.473Z,5.63
2023-11-08T07:32:42.701Z,5.72
2023-11-08T07:35:10.068Z,5.85
2023-11-08T07:37:40.976Z,5.55
2023-11-08T07:40:13.142Z,6.43
2023-11-08T07:42:41.025Z,7.35
2023-11-08T07:45:08.505Z,6.20
2023-11-08T07:47:35.742Z,6.30
2023-11-08T07:50:05.954Z,6.55
2023-11-08T07:52:33.507Z,7.05
2023-11-08T07:55:00.436Z,6.55
2023-11-08T07:57:27.694Z,6.28
2023-11-08T07:59:55.225Z,6.95
2023-11-08T08:02:22.410Z,6.97
2023-11-08T08:04:50.197Z,6.53
2023-11-08T08:07:17.388Z,6.22
2023-11-08T08:09:44.212Z,5.97
2023-11-08T08:12:13.382Z,6.07
2023-11-08T08:14:40.294Z,6.05
2023-11-08T08:17:07.524Z,6.70
2023-11-08T08:19:34.413Z,6.18
2023-11-08T08:22:03.271Z,6.55
2023-11-08T08:24:30.610Z,6.07
2023-11-08T08:26:58.147Z,6.30
2023-11-08T08:29:27.310Z,5.65
2023-11-08T08:31:54.567Z,6.53
2023-11-08T08:34:28.700Z,5.80
2023-11-08T08:36:58.946Z,5.25
2023-11-08T08:39:29.589Z,5.32
2023-11-08T08:41:57.738Z,5.45
2023-11-08T08:44:25.419Z,4.57
2023-11-08T08:46:53.126Z,4.28
2023-11-08T08:49:22.088Z,4.20
2023-11-08T08:51:51.006Z,4.13
2023-11-08T08:54:19.378Z,3.85
2023-11-08T08:56:50.438Z,3.83
2023-11-08T08:59:17.279Z,3.47
2023-11-08T09:01:44.858Z,2.85
2023-11-08T09:04:12.154Z,3.22
2023-11-08T09:06:40.174Z,3.10
2023-11-08T09:09:13.494Z,4.05
2023-11-08T09:11:43.591Z,2.63
2023-11-08T09:14:10.561Z,2.65
2023-11-08T09:16:39.261Z,2.08
2023-11-08T09:19:08.957Z,2.85
2023-11-08T09:21:36.752Z,2.08
2023-11-08T09:24:07.237Z,2.10
2023-11-08T09:26:34.692Z,2.20
2023-11-08T09:29:01.510Z,1.90
2023-11-08T09:31:28.730Z,2.20
2023-11-08T09:34:00.062Z,1.80
2023-11-08T09:36:28.668Z,1.63
2023-11-08T09:38:58.604Z,1.77
2023-11-08T09:41:26.000Z,1.60
2023-11-08T09:43:53.196Z,1.60
2023-11-08T09:46:20.530Z,1.35
2023-11-08T09:48:50.295Z,1.23
2023-11-08T09:51:17.969Z,1.27
2023-11-08T09:53:45.053Z,1.35
2023-11-08T09:56:12.952Z,1.25
2023-11-08T09:58:45.386Z,1.40
2023-11-08T10:01:16.563Z,1.40
2023-11-08T10:03:47.374Z,1.10
2023-11-08T10:06:15.601Z,1.10
2023-11-08T10:08:42.700Z,1.25
2023-11-08T10:11:11.367Z,1.10
2023-11-08T10:13:46.843Z,1.35
2023-11-08T10:16:17.141Z,0.95
2023-11-08T10:19:35.491Z,1.35
2023-11-08T10:21:32.304Z,1.08
2023-11-08T10:24:19.620Z,1.00
2023-11-08T10:26:47.824Z,0.90
2023-11-08T10:29:14.877Z,1.10
2023-11-08T10:31:42.909Z,1.60
2023-11-08T10:34:13.633Z,0.93
2023-11-08T10:36:40.945Z,1.35
2023-11-08T10:39:09.101Z,1.40
2023-11-08T10:41:36.656Z,1.30
2023-11-08T10:44:10.454Z,0.70
2023-11-08T10:46:38.602Z,1.25
2023-11-08T10:49:08.642Z,1.50
2023-11-08T10:51:39.766Z,2.13
2023-11-08T10:54:07.465Z,1.83
2023-11-08T10:56:35.220Z,2.00
2023-11-08T10:59:04.624Z,1.50
2023-11-08T11:01:32.927Z,1.48
2023-11-08T11:04:07.266Z,1.98
2023-11-08T11:06:35.496Z,1.83
2023-11-08T11:09:11.143Z,1.75
2023-11-08T11:11:43.827Z,1.63
2023-11-08T11:14:34.424Z,1.40
2023-11-08T11:17:20.790Z,1.83
2023-11-08T11:19:47.828Z,1.67
2023-11-08T11:22:17.028Z,0.85
2023-11-08T11:24:44.700Z,1.13
2023-11-08T11:27:35.082Z,1.35
2023-11-08T11:30:27.714Z,0.95
2023-11-08T11:32:55.530Z,1.40
2023-11-08T11:35:31.391Z,1.17
2023-11-08T11:38:07.307Z,1.75
2023-11-08T11:40:38.952Z,1.52
2023-11-08T11:43:31.088Z,1.10
2023-11-08T11:45:59.030Z,1.02
2023-11-08T11:48:29.491Z,1.00
2023-11-08T11:50:56.504Z,0.82
2023-11-08T11:53:25.330Z,1.20
2023-11-08T11:56:17.733Z,1.08
2023-11-08T11:58:44.882Z,1.00
2023-11-08T12:01:11.905Z,0.98
2023-11-08T12:03:39.169Z,0.80
2023-11-08T12:06:06.192Z,0.98
2023-11-08T12:08:34.300Z,1.00
2023-11-08T12:13:58.688Z,1.20
2023-11-08T12:16:26.041Z,1.17
2023-11-08T12:18:53.365Z,1.60
2023-11-08T12:21:20.408Z,1.73
2023-11-08T12:23:48.440Z,2.28
2023-11-08T12:26:15.247Z,2.08
2023-11-08T12:28:45.020Z,2.83
2023-11-08T12:31:12.598Z,3.03
2023-11-08T12:33:40.068Z,4.68
2023-11-08T12:36:07.441Z,3.92
2023-11-08T12:38:35.264Z,4.00
2023-11-08T12:41:06.186Z,3.78
2023-11-08T12:43:58.466Z,3.70
2023-11-08T12:46:37.356Z,3.58
2023-11-08T12:49:07.395Z,3.72
2023-11-08T12:51:34.339Z,4.07
2023-11-08T12:54:03.060Z,4.10
2023-11-08T12:56:40.516Z,3.65
2023-11-08T12:59:20.837Z,3.58
2023-11-08T13:01:52.174Z,4.10
2023-11-08T13:04:20.610Z,3.95
2023-11-08T13:06:48.788Z,3.88
2023-11-08T13:09:16.336Z,4.32
2023-11-08T13:11:43.209Z,4.35
2023-11-08T13:14:10.380Z,3.40
2023-11-08T13:16:37.417Z,2.83
2023-11-08T13:19:05.056Z,2.78
2023-11-08T13:21:32.114Z,2.88
2023-11-08T13:24:04.952Z,2.47
2023-11-08T13:26:35.385Z,2.30
2023-11-08T13:29:03.624Z,2.55
2023-11-08T13:31:30.802Z,1.90
2023-11-08T13:33:58.103Z,1.98
2023-11-08T13:36:28.865Z,1.90
2023-11-08T13:38:57.805Z,1.80
2023-11-08T13:41:25.157Z,1.90
2023-11-08T13:43:52.566Z,1.75
2023-11-08T13:46:19.660Z,1.35
2023-11-08T13:48:47.609Z,2.22
2023-11-08T13:51:15.222Z,1.55
2023-11-08T13:53:42.637Z,1.50
2023-11-08T13:56:09.492Z,1.55
2023-11-08T13:58:37.455Z,1.55
2023-11-08T14:01:10.042Z,1.20
2023-11-08T14:03:38.710Z,1.50
2023-11-08T14:06:07.654Z,1.40
2023-11-08T14:08:35.487Z,1.13
2023-11-08T14:11:02.388Z,1.33
2023-11-08T14:13:29.594Z,1.73
2023-11-08T14:15:56.684Z,1.45
2023-11-08T14:18:23.935Z,1.77
2023-11-08T14:20:50.869Z,2.42
2023-11-08T14:23:18.137Z,2.42
2023-11-08T14:25:45.034Z,2.13
2023-11-08T14:28:14.844Z,2.25
2023-11-08T14:30:41.787Z,2.17
2023-11-08T14:33:09.155Z,2.60
2023-11-08T14:41:05.420Z,3.22
2023-11-08T14:43:34.915Z,3.83
2023-11-08T14:46:01.811Z,4.18
2023-11-08T14:48:29.138Z,3.85
2023-11-08T14:50:56.076Z,4.55
2023-11-08T14:53:23.331Z,4.82
2023-11-08T14:55:50.301Z,4.40
2023-11-08T14:58:17.551Z,4.72
2023-11-08T15:00:45.840Z,4.57
2023-11-08T15:03:13.425Z,4.80
2023-11-08T15:05:40.461Z,4.68
2023-11-08T15:09:48.590Z,5.03
2023-11-08T15:10:54.902Z,5.20
2023-11-08T15:13:22.551Z,4.45
2023-11-08T15:15:49.521Z,5.38
2023-11-08T15:18:17.923Z,6.55
2023-11-08T15:20:44.819Z,6.15
2023-11-08T15:23:12.005Z,6.38
2023-11-08T15:25:40.960Z,7.20
2023-11-08T15:28:10.493Z,6.85
2023-11-08T15:30:37.430Z,7.35
2023-11-08T15:33:05.981Z,7.18
2023-11-08T15:35:33.003Z,8.63
2023-11-08T15:38:00.235Z,7.55
2023-11-08T15:40:27.163Z,7.72
2023-11-08T15:42:54.570Z,6.63
2023-11-08T15:45:21.492Z,7.55
2023-11-08T15:47:48.800Z,6.05
2023-11-08T15:50:15.791Z,5.93
2023-11-08T15:52:43.035Z,6.00
2023-11-08T15:55:10.224Z,5.55
2023-11-08T15:57:37.561Z,4.47
2023-11-08T16:00:08.459Z,4.75
2023-11-08T16:02:35.844Z,5.18
2023-11-08T16:05:04.884Z,5.40
2023-11-08T16:07:32.215Z,4.25
2023-11-08T16:09:59.655Z,5.00
2023-11-08T16:12:26.979Z,4.15
2023-11-08T16:14:53.895Z,4.82
2023-11-08T16:17:22.820Z,4.80
2023-11-08T16:19:50.230Z,4.93
2023-11-08T16:22:17.726Z,5.75
2023-11-08T16:24:44.821Z,6.18
2023-11-08T16:27:12.046Z,5.60
2023-11-08T16:29:51.598Z,6.13
2023-11-08T16:32:35.718Z,5.95
2023-11-08T16:35:09.962Z,6.78
2023-11-08T16:37:39.966Z,6.57
2023-11-08T16:40:11.029Z,7.10
2023-11-08T16:42:38.566Z,7.35
2023-11-08T16:45:07.181Z,8.63
2023-11-08T16:47:34.811Z,8.15
2023-11-08T16:50:01.733Z,7.90
2023-11-08T16:52:29.071Z,8.20
2023-11-08T16:54:57.181Z,10.02
2023-11-08T16:57:24.440Z,9.50
2023-11-08T16:59:51.391Z,9.18
2023-11-08T17:02:18.573Z,10.73
2023-11-08T17:04:45.618Z,10.48
2023-11-08T17:07:13.449Z,11.38
2023-11-08T17:09:40.497Z,11.07
2023-11-08T17:12:08.285Z,10.43
2023-11-08T17:14:35.562Z,10.63
2023-11-08T17:17:02.828Z,11.30
2023-11-08T17:19:29.849Z,10.52
2023-11-08T17:21:57.214Z,11.77
2023-11-08T17:24:24.120Z,11.35
2023-11-08T17:26:51.428Z,10.90
2023-11-08T17:29:18.255Z,11.40
2023-11-08T17:31:47.982Z,11.35
2023-11-08T17:34:15.136Z,11.00
2023-11-08T17:36:43.169Z,10.57
2023-11-08T17:39:10.101Z,9.32
2023-11-08T17:41:38.063Z,9.50
2023-11-08T17:44:04.933Z,7.13
2023-11-08T17:46:33.011Z,7.80
2023-11-08T17:49:00.035Z,8.60
2023-11-08T17:51:28.068Z,8.52
2023-11-08T17:53:54.907Z,8.40
2023-11-08T17:56:22.150Z,7.45
2023-11-08T17:58:48.975Z,7.03
2023-11-08T18:01:17.851Z,8.07
2023-11-08T18:03:46.389Z,8.13
2023-11-08T18:06:17.217Z,7.75
2023-11-08T18:08:44.891Z,7.40
2023-11-08T18:11:12.037Z,7.38
2023-11-08T18:13:39.429Z,7.95
2023-11-08T18:16:07.461Z,7.97
2023-11-08T18:18:34.422Z,7.78
2023-11-08T18:21:01.639Z,6.95
2023-11-08T18:23:28.957Z,8.27
2023-11-08T18:25:56.274Z,7.72
2023-11-08T18:28:23.201Z,7.57
2023-11-08T18:30:50.477Z,8.18
2023-11-08T18:33:19.778Z,7.70
2023-11-08T18:35:47.645Z,7.85
2023-11-08T18:38:14.603Z,8.52
2023-11-08T18:40:41.776Z,8.40
2023-11-08T18:43:08.721Z,8.60
2023-11-08T18:45:36.374Z,9.00
2023-11-08T18:48:03.937Z,9.07
2023-11-08T18:50:31.209Z,8.60
2023-11-08T18:52:58.163Z,9.05
2023-11-08T18:55:26.532Z,8.85
2023-11-08T18:57:53.639Z,7.60
2023-11-08T19:00:24.285Z,7.78
2023-11-08T19:02:52.936Z,9.05
2023-11-08T19:05:23.256Z,7.63
2023-11-08T19:07:53.355Z,8.38
2023-11-08T19:10:20.714Z,10.07
2023-11-08T19:12:47.830Z,9.10
2023-11-08T19:15:15.835Z,8.27
2023-11-08T19:17:42.951Z,8.98
2023-11-08T19:20:11.290Z,9.02
2023-11-08T19:22:38.518Z,8.82
2023-11-08T19:25:06.398Z,8.40
2023-11-08T19:27:34.023Z,9.18
2023-11-08T19:30:01.341Z,8.60
2023-11-08T19:32:28.423Z,9.73
2023-11-08T19:34:55.633Z,8.77
2023-11-08T19:37:22.575Z,8.27
2023-11-08T19:39:49.737Z,8.90
2023-11-08T19:42:17.719Z,8.98
2023-11-08T19:44:44.916Z,8.98
2023-11-08T19:47:11.745Z,8.50
2023-11-08T19:49:38.955Z,8.57
2023-11-08T19:52:07.898Z,10.15
2023-11-08T19:54:35.188Z,10.10
2023-11-08T19:57:02.044Z,8.85
2023-11-08T19:59:29.325Z,10.38
2023-11-08T20:01:56.287Z,9.63
2023-11-08T20:04:23.967Z,11.23
2023-11-08T20:06:50.923Z,10.88
2023-11-08T20:09:19.576Z,12.18
2023-11-08T20:11:46.455Z,11.13
2023-11-08T20:14:13.645Z,10.57
2023-11-08T20:16:43.845Z,10.52
2023-11-08T20:19:11.210Z,10.45
2023-11-08T20:21:38.080Z,10.48
2023-11-08T20:24:05.458Z,10.80
2023-11-08T20:26:32.317Z,11.48
2023-11-08T20:28:59.754Z,11.30
2023-11-08T20:31:26.607Z,11.43
2023-11-08T20:33:56.607Z,12.32
2023-11-08T20:36:24.786Z,12.82
2023-11-08T20:38:52.064Z,12.68
2023-11-08T20:41:18.914Z,14.43
2023-11-08T20:43:49.000Z,13.07
2023-11-08T20:46:17.988Z,12.43
2023-11-08T20:48:46.285Z,13.15
2023-11-08T20:51:13.224Z,14.07
2023-11-08T20:53:42.070Z,13.63
2023-11-08T20:56:12.072Z,14.65
2023-11-08T20:58:39.893Z,14.02
2023-11-08T21:01:07.277Z,13.18
2023-11-08T21:03:34.499Z,14.30
2023-11-08T21:06:02.171Z,13.35
2023-11-08T21:08:28.966Z,12.95
2023-11-08T21:10:56.349Z,13.05
2023-11-08T21:13:23.344Z,13.10
2023-11-08T21:15:50.635Z,12.57
2023-11-08T21:18:20.072Z,13.27
2023-11-08T21:20:48.981Z,12.05
2023-11-08T21:23:15.890Z,12.88
2023-11-08T21:25:43.174Z,12.13
2023-11-08T21:28:10.005Z,12.55
2023-11-08T21:30:38.016Z,12.65
2023-11-08T21:33:05.537Z,11.80
2023-11-08T21:35:33.147Z,12.35
2023-11-08T21:38:00.144Z,12.55
2023-11-08T21:40:27.343Z,12.50
2023-11-08T21:42:55.587Z,11.60
2023-11-08T21:45:22.974Z,11.70
2023-11-08T21:47:49.832Z,12.05
2023-11-08T21:50:17.213Z,11.50
2023-11-08T21:52:44.027Z,11.85
2023-11-08T21:55:14.455Z,11.30
2023-11-08T21:57:42.011Z,10.10
2023-11-08T22:00:11.231Z,11.45
2023-11-08T22:02:39.037Z,11.40
2023-11-08T22:05:07.294Z,11.57
2023-11-08T22:07:34.193Z,10.93
2023-11-08T22:10:01.411Z,12.18
2023-11-08T22:12:28.337Z,12.23
2023-11-08T22:14:55.567Z,12.25
2023-11-08T22:17:22.380Z,11.13
2023-11-08T22:19:49.682Z,11.60
2023-11-08T22:22:17.170Z,11.55
2023-11-08T22:24:44.411Z,11.93
2023-11-08T22:27:11.277Z,12.77
2023-11-08T22:29:38.435Z,12.13
2023-11-08T22:32:05.714Z,13.30
2023-11-08T22:34:32.905Z,11.48
2023-11-08T22:36:59.699Z,12.85
2023-11-08T22:39:27.236Z,13.40
2023-11-08T22:41:54.147Z,14.32
2023-11-08T22:44:21.311Z,12.25
2023-11-08T22:46:48.122Z,14.05
2023-11-08T22:49:15.804Z,13.55
2023-11-08T22:51:42.824Z,14.80
2023-11-08T22:54:11.926Z,14.18
2023-11-08T22:56:38.818Z,13.80
2023-11-08T22:59:05.918Z,13.18
2023-11-08T23:01:34.172Z,13.80
2023-11-08T23:04:04.771Z,14.23
2023-11-08T23:06:32.175Z,14.18
2023-11-08T23:09:01.468Z,12.43
2023-11-08T23:11:31.233Z,14.20
2023-11-08T23:13:58.618Z,13.65
2023-11-08T23:16:25.634Z,14.18
2023-11-08T23:18:55.823Z,12.85
2023-11-08T23:21:22.843Z,13.98
2023-11-08T23:23:50.551Z,14.10
2023-11-08T23:26:17.430Z,13.25
2023-11-08T23:28:44.569Z,12.65
2023-11-08T23:31:12.039Z,12.57
2023-11-08T23:33:39.274Z,12.75
2023-11-08T23:36:06.495Z,12.38
2023-11-08T23:38:33.601Z,12.57
2023-11-08T23:41:01.274Z,11.85
2023-11-08T23:43:28.647Z,13.20
2023-11-08T23:45:55.664Z,11.98
2023-11-08T23:48:22.958Z,13.10
2023-11-08T23:50:49.823Z,12.65
2023-11-08T23:53:17.158Z,11.57
2023-11-08T23:55:44.110Z,12.52
2023-11-08T23:58:11.827Z,12.13
